Iver Agile — IBHW — position and weather

sailwx.info

Track history (hours):
 
Tides and Currents Weather Stations Pressure Air Temp Water Temp Dewpoint Dewpoint Depression Visibility Wind Speed Wind Dir Waves Ship Positions

Iver Agile

Last reported at 2016-Jan-29 07:09 UTC. Time now 2016-Feb-07 23:53 UTC.
Position N 35°57' W 005°37'.
Warning: this ship's position is 9 days out of date.

Length 110 m; draft 4.5 m.

Type: Tanker. MMSI: 247103700.

Date/timePositionNaut miles runAvg speedWind from/ knotsBaromVisibWave heightAir tempDewpointWater temp
2016-Jan-29 07:09N 35°57' W 005°37'6 9.4
2016-Jan-29 06:34N 35°59' W 005°31'9 9.5
2016-Jan-29 05:34N 36°07' W 005°24'1 0.0
2016-Jan-27 15:33N 36°08' W 005°23'9 8.8
2016-Jan-27 14:33N 35°59' W 005°23'  
2016-Jan-24 02:32N 35°58' W 005°41'1312.8
2016-Jan-24 01:33N 36°01' W 005°26'10 9.9
2016-Jan-24 00:33N 36°10' W 005°24'0 0.0
2016-Jan-23 17:31N 36°10' W 005°24'1 0.1
2016-Jan-23 02:32N 36°10' W 005°23'0 0.0
2016-Jan-23 01:32N 36°10' W 005°23'0 0.0
2016-Jan-22 20:32N 36°10' W 005°23'0 0.0
2016-Jan-22 05:23N 36°10' W 005°23'0 0.1
2016-Jan-22 04:32N 36°10' W 005°23'0 0.1
2016-Jan-22 03:26N 36°10' W 005°23'0 0.0
2016-Jan-22 02:32N 36°10' W 005°23'0 0.0
2016-Jan-22 01:20N 36°10' W 005°23'0 0.0
2016-Jan-22 00:26N 36°10' W 005°23'0 0.0
2016-Jan-21 21:11N 36°10' W 005°23'0 0.0
2016-Jan-21 13:32N 36°10' W 005°23'0 0.0
2016-Jan-21 12:26N 36°10' W 005°23'0 0.0
2016-Jan-21 07:23N 36°10' W 005°23'0 0.0
2016-Jan-21 05:32N 36°10' W 005°23'0 0.0
2016-Jan-21 04:26N 36°10' W 005°23'0 0.0
2016-Jan-21 03:08N 36°10' W 005°23'0 0.1
2016-Jan-21 02:14N 36°10' W 005°23'0 0.0
2016-Jan-21 01:05N 36°10' W 005°23'0 0.1
2016-Jan-20 23:26N 36°10' W 005°23'0 0.0
2016-Jan-20 19:26N 36°10' W 005°23'0 0.0
2016-Jan-19 09:20N 36°10' W 005°23'0 0.1
2016-Jan-19 08:32N 36°10' W 005°23'0 0.0
2016-Jan-19 07:26N 36°10' W 005°23'  
Track history (hours):
 
Tides and Currents Weather Stations Pressure Air Temp Water Temp Dewpoint Dewpoint Depression Visibility Wind Speed Wind Dir Waves Ship Positions

Iver Agile

Last reported at 2016-Jan-29 07:09 UTC. Time now 2016-Feb-07 23:53 UTC.
Position N 35°57' W 005°37'.
Warning: this ship's position is 9 days out of date.

Length 110 m; draft 4.5 m.

Type: Tanker. MMSI: 247103700.

Date/timePositionNaut miles runAvg speedWind from/ knotsBaromVisibWave heightAir tempDewpointWater temp
2016-Jan-29 07:09N 35°57' W 005°37'6 9.4
2016-Jan-29 06:34N 35°59' W 005°31'9 9.5
2016-Jan-29 05:34N 36°07' W 005°24'1 0.0
2016-Jan-27 15:33N 36°08' W 005°23'9 8.8
2016-Jan-27 14:33N 35°59' W 005°23'  
2016-Jan-24 02:32N 35°58' W 005°41'1312.8
2016-Jan-24 01:33N 36°01' W 005°26'10 9.9
2016-Jan-24 00:33N 36°10' W 005°24'0 0.0
2016-Jan-23 17:31N 36°10' W 005°24'1 0.1
2016-Jan-23 02:32N 36°10' W 005°23'0 0.0
2016-Jan-23 01:32N 36°10' W 005°23'0 0.0
2016-Jan-22 20:32N 36°10' W 005°23'0 0.0
2016-Jan-22 05:23N 36°10' W 005°23'0 0.1
2016-Jan-22 04:32N 36°10' W 005°23'0 0.1
2016-Jan-22 03:26N 36°10' W 005°23'0 0.0
2016-Jan-22 02:32N 36°10' W 005°23'0 0.0
2016-Jan-22 01:20N 36°10' W 005°23'0 0.0
2016-Jan-22 00:26N 36°10' W 005°23'0 0.0
2016-Jan-21 21:11N 36°10' W 005°23'0 0.0
2016-Jan-21 13:32N 36°10' W 005°23'0 0.0
2016-Jan-21 12:26N 36°10' W 005°23'0 0.0
2016-Jan-21 07:23N 36°10' W 005°23'0 0.0
2016-Jan-21 05:32N 36°10' W 005°23'0 0.0
2016-Jan-21 04:26N 36°10' W 005°23'0 0.0
2016-Jan-21 03:08N 36°10' W 005°23'0 0.1
2016-Jan-21 02:14N 36°10' W 005°23'0 0.0
2016-Jan-21 01:05N 36°10' W 005°23'0 0.1
2016-Jan-20 23:26N 36°10' W 005°23'0 0.0
2016-Jan-20 19:26N 36°10' W 005°23'0 0.0
2016-Jan-19 09:20N 36°10' W 005°23'0 0.1
2016-Jan-19 08:32N 36°10' W 005°23'0 0.0
2016-Jan-19 07:26N 36°10' W 005°23'  

Dump ship's entire track history